Polis, Cyprus
Current Conditions -  °F | °C
As of 2:00 PM on Monday 22 Dec 2014 (Local Time) from LCPH Reporting Station
Scattered Clouds Scattered Clouds  
Wind Chill: 20°   Ceiling: Unl
Heat Index: 20°   Visibility: 6mi
Dew Point: 13°   Wind: 14mph
Humidity: 64%   Direction: 310°NW
Pressure: 29.94"   Gusts: NA
Location:  35.03°N, 32.41°E
Report Text: LCPH 221100Z 31012KT 9999 FEW030TCU SCT040 20/13 Q1014
Loading
Personal Weather Stations






























Interactive Weather Map New forecast layout! Learn more

10-Day Weather Forecast

Advertisements
Track Severe Weather on mobile